sensor_id;sensor_type;location;lat;lon;timestamp;pressure;altitude;pressure_sealevel;temperature;humidity
43364;BME280;40636;52.424;-1.948;2023-01-01T00:02:20;98264.47;;;8.04;100.00
43364;BME280;40636;52.424;-1.948;2023-01-01T00:04:47;98283.56;;;8.09;100.00
43364;BME280;40636;52.424;-1.948;2023-01-01T00:07:14;98282.19;;;8.12;100.00
43364;BME280;40636;52.424;-1.948;2023-01-01T00:09:41;98279.47;;;8.12;100.00
43364;BME280;40636;52.424;-1.948;2023-01-01T00:12:26;98277.81;;;8.16;100.00
43364;BME280;40636;52.424;-1.948;2023-01-01T00:14:53;98278.09;;;8.14;100.00
43364;BME280;40636;52.424;-1.948;2023-01-01T00:17:19;98282.75;;;8.14;100.00
43364;BME280;40636;52.424;-1.948;2023-01-01T00:19:46;98276.72;;;8.17;100.00
43364;BME280;40636;52.424;-1.948;2023-01-01T00:22:13;98287.38;;;8.19;100.00
43364;BME280;40636;52.424;-1.948;2023-01-01T00:24:59;98282.72;;;8.19;100.00
43364;BME280;40636;52.424;-1.948;2023-01-01T00:27:26;98287.63;;;8.17;100.00
43364;BME280;40636;52.424;-1.948;2023-01-01T00:29:53;98291.22;;;8.18;100.00
43364;BME280;40636;52.424;-1.948;2023-01-01T00:32:19;98288.47;;;8.12;100.00
43364;BME280;40636;52.424;-1.948;2023-01-01T00:34:48;98299.16;;;8.09;100.00
43364;BME280;40636;52.424;-1.948;2023-01-01T00:37:15;98294.75;;;8.08;100.00
43364;BME280;40636;52.424;-1.948;2023-01-01T00:39:44;98290.69;;;8.05;100.00
43364;BME280;40636;52.424;-1.948;2023-01-01T00:42:11;98299.97;;;8.04;100.00
43364;BME280;40636;52.424;-1.948;2023-01-01T00:44:37;98295.06;;;8.01;100.00
43364;BME280;40636;52.424;-1.948;2023-01-01T00:47:04;98293.44;;;7.95;100.00
43364;BME280;40636;52.424;-1.948;2023-01-01T00:49:31;98306.50;;;7.98;100.00
43364;BME280;40636;52.424;-1.948;2023-01-01T00:51:58;98308.44;;;8.03;100.00
43364;BME280;40636;52.424;-1.948;2023-01-01T00:54:24;98308.44;;;8.03;100.00
43364;BME280;40636;52.424;-1.948;2023-01-01T00:56:52;98322.91;;;8.03;100.00
43364;BME280;40636;52.424;-1.948;2023-01-01T00:59:18;98317.19;;;8.00;100.00
43364;BME280;40636;52.424;-1.948;2023-01-01T01:01:53;98335.22;;;7.96;100.00
43364;BME280;40636;52.424;-1.948;2023-01-01T01:04:20;98336.31;;;8.00;100.00
43364;BME280;40636;52.424;-1.948;2023-01-01T01:06:47;98334.94;;;7.97;100.00
43364;BME280;40636;52.424;-1.948;2023-01-01T01:09:14;98344.50;;;8.00;100.00
43364;BME280;40636;52.424;-1.948;2023-01-01T01:11:40;98349.41;;;7.98;100.00
43364;BME280;40636;52.424;-1.948;2023-01-01T01:14:07;98364.44;;;7.95;100.00
43364;BME280;40636;52.424;-1.948;2023-01-01T01:16:34;98361.97;;;7.99;100.00
43364;BME280;40636;52.424;-1.948;2023-01-01T01:19:03;98364.16;;;7.97;100.00
43364;BME280;40636;52.424;-1.948;2023-01-01T01:21:32;98371.78;;;7.95;100.00
43364;BME280;40636;52.424;-1.948;2023-01-01T01:24:01;98379.97;;;7.95;100.00
43364;BME280;40636;52.424;-1.948;2023-01-01T01:26:30;98378.34;;;7.94;100.00
43364;BME280;40636;52.424;-1.948;2023-01-01T01:28:57;98373.16;;;7.87;100.00
43364;BME280;40636;52.424;-1.948;2023-01-01T01:31:28;98388.16;;;7.79;100.00
43364;BME280;40636;52.424;-1.948;2023-01-01T01:33:55;98387.34;;;7.79;100.00
43364;BME280;40636;52.424;-1.948;2023-01-01T01:36:24;98396.63;;;7.73;100.00
43364;BME280;40636;52.424;-1.948;2023-01-01T01:38:51;98381.31;;;7.72;100.00
43364;BME280;40636;52.424;-1.948;2023-01-01T01:41:21;98392.25;;;7.72;100.00
43364;BME280;40636;52.424;-1.948;2023-01-01T01:44:00;98402.34;;;7.71;100.00
43364;BME280;40636;52.424;-1.948;2023-01-01T01:46:41;98405.91;;;7.72;100.00
43364;BME280;40636;52.424;-1.948;2023-01-01T01:49:20;98410.81;;;7.70;100.00
43364;BME280;40636;52.424;-1.948;2023-01-01T01:51:49;98412.44;;;7.71;100.00
43364;BME280;40636;52.424;-1.948;2023-01-01T01:54:20;98417.91;;;7.66;100.00
43364;BME280;40636;52.424;-1.948;2023-01-01T01:56:51;98416.25;;;7.59;100.00
43364;BME280;40636;52.424;-1.948;2023-01-01T01:59:20;98425.00;;;7.61;100.00
43364;BME280;40636;52.424;-1.948;2023-01-01T02:01:48;98421.72;;;7.59;100.00
43364;BME280;40636;52.424;-1.948;2023-01-01T02:04:15;98427.72;;;7.56;100.00
43364;BME280;40636;52.424;-1.948;2023-01-01T02:06:43;98432.34;;;7.51;100.00
43364;BME280;40636;52.424;-1.948;2023-01-01T02:09:10;98432.03;;;7.47;100.00
43364;BME280;40636;52.424;-1.948;2023-01-01T02:11:37;98445.09;;;7.40;100.00
43364;BME280;40636;52.424;-1.948;2023-01-01T02:14:04;98433.66;;;7.38;100.00
43364;BME280;40636;52.424;-1.948;2023-01-01T02:16:50;98447.81;;;7.35;100.00
43364;BME280;40636;52.424;-1.948;2023-01-01T02:19:49;98457.63;;;7.31;100.00
43364;BME280;40636;52.424;-1.948;2023-01-01T02:27:28;98463.94;;;7.31;100.00
43364;BME280;40636;52.424;-1.948;2023-01-01T02:30:04;98476.72;;;7.31;100.00
43364;BME280;40636;52.424;-1.948;2023-01-01T02:32:44;98473.75;;;7.37;100.00
43364;BME280;40636;52.424;-1.948;2023-01-01T02:35:26;98472.41;;;7.40;100.00
43364;BME280;40636;52.424;-1.948;2023-01-01T02:38:24;98469.13;;;7.38;100.00
43364;BME280;40636;52.424;-1.948;2023-01-01T02:41:00;98474.28;;;7.34;100.00
43364;BME280;40636;52.424;-1.948;2023-01-01T02:43:28;98465.28;;;7.34;100.00
43364;BME280;40636;52.424;-1.948;2023-01-01T02:45:55;98469.34;;;7.26;100.00
43364;BME280;40636;52.424;-1.948;2023-01-01T02:48:45;98484.88;;;7.26;100.00
43364;BME280;40636;52.424;-1.948;2023-01-01T02:56:42;98476.66;;;7.16;100.00
43364;BME280;40636;52.424;-1.948;2023-01-01T02:59:31;98483.47;;;7.13;100.00
43364;BME280;40636;52.424;-1.948;2023-01-01T03:10:30;98493.47;;;6.97;100.00
43364;BME280;40636;52.424;-1.948;2023-01-01T03:13:03;98503.28;;;6.98;100.00
43364;BME280;40636;52.424;-1.948;2023-01-01T03:19:07;98509.28;;;6.95;100.00
43364;BME280;40636;52.424;-1.948;2023-01-01T03:22:03;98505.16;;;6.93;100.00
43364;BME280;40636;52.424;-1.948;2023-01-01T03:24:43;98515.75;;;6.89;100.00
43364;BME280;40636;52.424;-1.948;2023-01-01T03:27:54;98509.75;;;6.87;100.00
43364;BME280;40636;52.424;-1.948;2023-01-01T03:30:23;98512.22;;;6.89;100.00
43364;BME280;40636;52.424;-1.948;2023-01-01T03:32:55;98525.03;;;6.88;100.00
43364;BME280;40636;52.424;-1.948;2023-01-01T03:38:00;98528.84;;;6.87;100.00
43364;BME280;40636;52.424;-1.948;2023-01-01T03:40:30;98527.22;;;6.86;100.00
43364;BME280;40636;52.424;-1.948;2023-01-01T03:43:07;98532.66;;;6.86;100.00
43364;BME280;40636;52.424;-1.948;2023-01-01T03:45:42;98530.19;;;6.84;100.00
43364;BME280;40636;52.424;-1.948;2023-01-01T03:48:10;98534.28;;;6.87;100.00
43364;BME280;40636;52.424;-1.948;2023-01-01T03:50:51;98533.47;;;6.86;100.00
43364;BME280;40636;52.424;-1.948;2023-01-01T03:53:35;98551.47;;;6.88;100.00
43364;BME280;40636;52.424;-1.948;2023-01-01T03:56:15;98556.09;;;6.87;100.00
43364;BME280;40636;52.424;-1.948;2023-01-01T03:58:50;98554.50;;;6.91;100.00
43364;BME280;40636;52.424;-1.948;2023-01-01T04:01:26;98555.63;;;6.95;100.00
43364;BME280;40636;52.424;-1.948;2023-01-01T04:03:58;98552.94;;;7.00;100.00
43364;BME280;40636;52.424;-1.948;2023-01-01T04:06:26;98569.34;;;7.05;100.00
43364;BME280;40636;52.424;-1.948;2023-01-01T04:08:57;98568.25;;;7.06;100.00
43364;BME280;40636;52.424;-1.948;2023-01-01T04:11:30;98572.09;;;7.10;100.00
43364;BME280;40636;52.424;-1.948;2023-01-01T04:14:30;98576.78;;;7.15;100.00
43364;BME280;40636;52.424;-1.948;2023-01-01T04:16:59;98586.91;;;7.20;100.00
43364;BME280;40636;52.424;-1.948;2023-01-01T04:19:26;98586.59;;;7.16;100.00
43364;BME280;40636;52.424;-1.948;2023-01-01T04:21:53;98580.91;;;7.18;100.00
43364;BME280;40636;52.424;-1.948;2023-01-01T04:24:19;98580.00;;;7.12;100.00
43364;BME280;40636;52.424;-1.948;2023-01-01T04:26:47;98581.88;;;7.06;100.00
43364;BME280;40636;52.424;-1.948;2023-01-01T04:29:14;98585.66;;;7.00;100.00
43364;BME280;40636;52.424;-1.948;2023-01-01T04:31:40;98581.59;;;7.03;100.00
43364;BME280;40636;52.424;-1.948;2023-01-01T04:34:07;98591.66;;;7.02;100.00
43364;BME280;40636;52.424;-1.948;2023-01-01T04:36:34;98576.59;;;6.95;100.00
43364;BME280;40636;52.424;-1.948;2023-01-01T04:39:01;98585.31;;;6.92;100.00
43364;BME280;40636;52.424;-1.948;2023-01-01T04:41:28;98590.44;;;6.83;100.00
43364;BME280;40636;52.424;-1.948;2023-01-01T04:43:55;98599.06;;;6.75;100.00
43364;BME280;40636;52.424;-1.948;2023-01-01T04:46:23;98592.00;;;6.74;100.00
43364;BME280;40636;52.424;-1.948;2023-01-01T04:48:50;98589.00;;;6.75;100.00
43364;BME280;40636;52.424;-1.948;2023-01-01T04:51:19;98601.84;;;6.80;100.00
43364;BME280;40636;52.424;-1.948;2023-01-01T04:53:45;98599.94;;;6.80;100.00
43364;BME280;40636;52.424;-1.948;2023-01-01T04:56:15;98601.28;;;6.78;100.00
43364;BME280;40636;52.424;-1.948;2023-01-01T04:58:42;98600.72;;;6.76;100.00
43364;BME280;40636;52.424;-1.948;2023-01-01T05:01:22;98597.41;;;6.69;100.00
43364;BME280;40636;52.424;-1.948;2023-01-01T05:03:49;98592.13;;;6.62;100.00
43364;BME280;40636;52.424;-1.948;2023-01-01T05:06:16;98602.22;;;6.61;100.00
43364;BME280;40636;52.424;-1.948;2023-01-01T05:08:46;98601.63;;;6.54;100.00
43364;BME280;40636;52.424;-1.948;2023-01-01T05:11:18;98604.03;;;6.51;100.00
43364;BME280;40636;52.424;-1.948;2023-01-01T05:13:46;98602.69;;;6.53;100.00
43364;BME280;40636;52.424;-1.948;2023-01-01T05:16:16;98602.63;;;6.48;100.00
43364;BME280;40636;52.424;-1.948;2023-01-01T05:18:44;98603.41;;;6.44;100.00
43364;BME280;40636;52.424;-1.948;2023-01-01T05:21:16;98597.09;;;6.38;100.00
43364;BME280;40636;52.424;-1.948;2023-01-01T05:23:43;98619.44;;;6.40;100.00
43364;BME280;40636;52.424;-1.948;2023-01-01T05:26:19;98600.06;;;6.37;100.00
43364;BME280;40636;52.424;-1.948;2023-01-01T05:28:46;98612.88;;;6.36;100.00
43364;BME280;40636;52.424;-1.948;2023-01-01T05:31:16;98617.78;;;6.39;100.00
43364;BME280;40636;52.424;-1.948;2023-01-01T05:33:43;98635.22;;;6.38;100.00
43364;BME280;40636;52.424;-1.948;2023-01-01T05:36:25;98632.81;;;6.42;100.00
43364;BME280;40636;52.424;-1.948;2023-01-01T05:38:52;98635.28;;;6.43;100.00
43364;BME280;40636;52.424;-1.948;2023-01-01T05:41:20;98650.53;;;6.44;100.00
43364;BME280;40636;52.424;-1.948;2023-01-01T05:43:47;98648.13;;;6.48;100.00
43364;BME280;40636;52.424;-1.948;2023-01-01T05:46:21;98646.81;;;6.50;100.00
43364;BME280;40636;52.424;-1.948;2023-01-01T05:48:48;98645.69;;;6.46;100.00
43364;BME280;40636;52.424;-1.948;2023-01-01T05:51:20;98641.59;;;6.49;100.00
43364;BME280;40636;52.424;-1.948;2023-01-01T05:53:47;98655.00;;;6.50;100.00
43364;BME280;40636;52.424;-1.948;2023-01-01T05:56:15;98653.66;;;6.53;100.00
43364;BME280;40636;52.424;-1.948;2023-01-01T05:58:42;98655.59;;;6.57;100.00
43364;BME280;40636;52.424;-1.948;2023-01-01T06:03:44;98664.41;;;6.65;100.00
43364;BME280;40636;52.424;-1.948;2023-01-01T06:06:16;98680.31;;;6.73;100.00
43364;BME280;40636;52.424;-1.948;2023-01-01T06:08:51;98686.91;;;6.77;100.00
43364;BME280;40636;52.424;-1.948;2023-01-01T06:11:19;98691.81;;;6.80;100.00
43364;BME280;40636;52.424;-1.948;2023-01-01T06:13:46;98702.22;;;6.83;100.00
43364;BME280;40636;52.424;-1.948;2023-01-01T06:16:13;98700.63;;;6.87;100.00
43364;BME280;40636;52.424;-1.948;2023-01-01T06:18:39;98706.63;;;6.89;100.00
43364;BME280;40636;52.424;-1.948;2023-01-01T06:21:09;98719.78;;;6.92;100.00
43364;BME280;40636;52.424;-1.948;2023-01-01T06:23:36;98712.13;;;6.94;100.00
43364;BME280;40636;52.424;-1.948;2023-01-01T06:26:11;98725.28;;;6.97;100.00
43364;BME280;40636;52.424;-1.948;2023-01-01T06:28:39;98736.50;;;7.01;100.00
43364;BME280;40636;52.424;-1.948;2023-01-01T06:31:07;98734.59;;;7.01;100.00
43364;BME280;40636;52.424;-1.948;2023-01-01T06:33:35;98761.03;;;7.01;100.00
43364;BME280;40636;52.424;-1.948;2023-01-01T06:36:04;98759.97;;;7.02;100.00
43364;BME280;40636;52.424;-1.948;2023-01-01T06:38:33;98767.59;;;7.00;100.00
43364;BME280;40636;52.424;-1.948;2023-01-01T06:41:05;98769.22;;;7.01;100.00
43364;BME280;40636;52.424;-1.948;2023-01-01T06:43:34;98759.31;;;6.95;100.00
43364;BME280;40636;52.424;-1.948;2023-01-01T06:46:30;98760.56;;;6.82;100.00
43364;BME280;40636;52.424;-1.948;2023-01-01T06:49:03;98760.44;;;6.72;100.00
43364;BME280;40636;52.424;-1.948;2023-01-01T06:51:42;98775.28;;;6.59;100.00
43364;BME280;40636;52.424;-1.948;2023-01-01T06:54:09;98764.81;;;6.51;100.00
43364;BME280;40636;52.424;-1.948;2023-01-01T06:56:37;98763.94;;;6.45;100.00
43364;BME280;40636;52.424;-1.948;2023-01-01T06:59:04;98762.22;;;6.39;100.00
43364;BME280;40636;52.424;-1.948;2023-01-01T07:01:33;98760.75;;;6.31;100.00
43364;BME280;40636;52.424;-1.948;2023-01-01T07:04:03;98776.53;;;6.29;100.00
43364;BME280;40636;52.424;-1.948;2023-01-01T07:06:32;98793.13;;;6.28;100.00
43364;BME280;40636;52.424;-1.948;2023-01-01T07:08:59;98795.34;;;6.31;100.00
43364;BME280;40636;52.424;-1.948;2023-01-01T07:11:26;98798.06;;;6.31;100.00
43364;BME280;40636;52.424;-1.948;2023-01-01T07:13:53;98809.81;;;6.31;100.00
43364;BME280;40636;52.424;-1.948;2023-01-01T07:16:21;98822.41;;;6.38;100.00
43364;BME280;40636;52.424;-1.948;2023-01-01T07:18:49;98818.69;;;6.44;100.00
43364;BME280;40636;52.424;-1.948;2023-01-01T07:23:56;98816.00;;;6.49;100.00
43364;BME280;40636;52.424;-1.948;2023-01-01T07:26:24;98807.53;;;6.45;100.00
43364;BME280;40636;52.424;-1.948;2023-01-01T07:28:51;98808.84;;;6.43;100.00
43364;BME280;40636;52.424;-1.948;2023-01-01T07:31:18;98804.72;;;6.40;100.00
43364;BME280;40636;52.424;-1.948;2023-01-01T07:33:44;98807.97;;;6.37;100.00
43364;BME280;40636;52.424;-1.948;2023-01-01T07:36:11;98813.91;;;6.34;100.00
43364;BME280;40636;52.424;-1.948;2023-01-01T07:38:39;98825.41;;;6.36;100.00
43364;BME280;40636;52.424;-1.948;2023-01-01T07:41:06;98819.94;;;6.36;100.00
43364;BME280;40636;52.424;-1.948;2023-01-01T07:43:34;98821.81;;;6.35;100.00
43364;BME280;40636;52.424;-1.948;2023-01-01T07:46:01;98821.53;;;6.32;100.00
43364;BME280;40636;52.424;-1.948;2023-01-01T07:48:28;98825.50;;;6.24;100.00
43364;BME280;40636;52.424;-1.948;2023-01-01T07:51:03;98821.47;;;6.27;100.00
43364;BME280;40636;52.424;-1.948;2023-01-01T07:53:29;98818.13;;;6.25;100.00
43364;BME280;40636;52.424;-1.948;2023-01-01T07:55:56;98812.63;;;6.20;100.00
43364;BME280;40636;52.424;-1.948;2023-01-01T07:58:23;98808.47;;;6.17;100.00
43364;BME280;40636;52.424;-1.948;2023-01-01T08:00:49;98809.06;;;6.19;100.00
43364;BME280;40636;52.424;-1.948;2023-01-01T08:03:16;98814.78;;;6.18;100.00
43364;BME280;40636;52.424;-1.948;2023-01-01T08:05:43;98812.63;;;6.20;100.00
43364;BME280;40636;52.424;-1.948;2023-01-01T08:08:10;98810.66;;;6.15;100.00
43364;BME280;40636;52.424;-1.948;2023-01-01T08:10:37;98819.31;;;6.12;100.00
43364;BME280;40636;52.424;-1.948;2023-01-01T08:13:05;98822.84;;;6.13;100.00
43364;BME280;40636;52.424;-1.948;2023-01-01T08:15:33;98826.41;;;6.13;100.00
43364;BME280;40636;52.424;-1.948;2023-01-01T08:18:02;98816.03;;;6.10;100.00
43364;BME280;40636;52.424;-1.948;2023-01-01T08:20:30;98809.75;;;6.09;100.00
43364;BME280;40636;52.424;-1.948;2023-01-01T08:22:57;98823.84;;;6.06;100.00
43364;BME280;40636;52.424;-1.948;2023-01-01T08:25:32;98821.06;;;6.01;100.00
43364;BME280;40636;52.424;-1.948;2023-01-01T08:27:58;98820.25;;;6.01;100.00
43364;BME280;40636;52.424;-1.948;2023-01-01T08:30:25;98825.16;;;6.04;100.00
43364;BME280;40636;52.424;-1.948;2023-01-01T08:32:52;98822.22;;;6.05;100.00
43364;BME280;40636;52.424;-1.948;2023-01-01T08:35:18;98838.56;;;6.05;100.00
43364;BME280;40636;52.424;-1.948;2023-01-01T08:37:45;98836.06;;;6.04;100.00
43364;BME280;40636;52.424;-1.948;2023-01-01T08:40:12;98842.38;;;6.04;100.00
43364;BME280;40636;52.424;-1.948;2023-01-01T08:42:39;98837.66;;;6.00;100.00
43364;BME280;40636;52.424;-1.948;2023-01-01T08:45:06;98838.56;;;6.05;100.00
43364;BME280;40636;52.424;-1.948;2023-01-01T08:47:33;98837.97;;;6.03;100.00
43364;BME280;40636;52.424;-1.948;2023-01-01T08:50:00;98843.19;;;6.05;100.00
43364;BME280;40636;52.424;-1.948;2023-01-01T08:52:26;98836.41;;;6.07;100.00
43364;BME280;40636;52.424;-1.948;2023-01-01T08:54:53;98851.91;;;6.07;100.00
43364;BME280;40636;52.424;-1.948;2023-01-01T08:57:19;98851.09;;;6.06;100.00
43364;BME280;40636;52.424;-1.948;2023-01-01T08:59:46;98845.47;;;6.13;100.00
43364;BME280;40636;52.424;-1.948;2023-01-01T09:02:13;98846.06;;;6.15;100.00
43364;BME280;40636;52.424;-1.948;2023-01-01T09:04:40;98860.84;;;6.19;100.00
43364;BME280;40636;52.424;-1.948;2023-01-01T09:07:06;98853.81;;;6.23;100.00
43364;BME280;40636;52.424;-1.948;2023-01-01T09:09:33;98851.91;;;6.24;100.00
43364;BME280;40636;52.424;-1.948;2023-01-01T09:12:00;98851.97;;;6.29;100.00
43364;BME280;40636;52.424;-1.948;2023-01-01T09:14:32;98857.75;;;6.32;100.00
43364;BME280;40636;52.424;-1.948;2023-01-01T09:16:59;98856.94;;;6.32;100.00
43364;BME280;40636;52.424;-1.948;2023-01-01T09:19:26;98852.13;;;6.39;100.00
43364;BME280;40636;52.424;-1.948;2023-01-01T09:21:53;98868.25;;;6.41;100.00
43364;BME280;40636;52.424;-1.948;2023-01-01T09:24:20;98859.88;;;6.47;100.00
43364;BME280;40636;52.424;-1.948;2023-01-01T09:26:46;98860.44;;;6.49;100.00
43364;BME280;40636;52.424;-1.948;2023-01-01T09:29:13;98856.97;;;6.54;100.00
43364;BME280;40636;52.424;-1.948;2023-01-01T09:31:44;98865.81;;;6.61;100.00
43364;BME280;40636;52.424;-1.948;2023-01-01T09:34:11;98864.50;;;6.64;100.00
43364;BME280;40636;52.424;-1.948;2023-01-01T09:36:38;98867.50;;;6.67;100.00
43364;BME280;40636;52.424;-1.948;2023-01-01T09:39:05;98862.66;;;6.69;100.00
43364;BME280;40636;52.424;-1.948;2023-01-01T09:46:59;98870.13;;;6.79;100.00
43364;BME280;40636;52.424;-1.948;2023-01-01T09:49:39;98875.66;;;6.84;100.00
43364;BME280;40636;52.424;-1.948;2023-01-01T09:52:11;98868.28;;;6.84;100.00
43364;BME280;40636;52.424;-1.948;2023-01-01T09:54:45;98877.06;;;6.86;100.00
43364;BME280;40636;52.424;-1.948;2023-01-01T09:57:14;98868.13;;;6.91;100.00
43364;BME280;40636;52.424;-1.948;2023-01-01T09:59:45;98871.41;;;6.93;100.00
43364;BME280;40636;52.424;-1.948;2023-01-01T10:02:44;98880.66;;;6.92;100.00
43364;BME280;40636;52.424;-1.948;2023-01-01T10:05:42;98880.72;;;6.97;100.00
43364;BME280;40636;52.424;-1.948;2023-01-01T10:08:17;98892.28;;;7.04;100.00
43364;BME280;40636;52.424;-1.948;2023-01-01T10:11:03;98898.31;;;7.06;100.00
43364;BME280;40636;52.424;-1.948;2023-01-01T10:13:39;98906.81;;;7.10;100.00
43364;BME280;40636;52.424;-1.948;2023-01-01T10:16:27;98922.91;;;7.11;100.00
43364;BME280;40636;52.424;-1.948;2023-01-01T10:18:58;98937.16;;;7.14;100.00
43364;BME280;40636;52.424;-1.948;2023-01-01T10:21:38;98948.69;;;7.21;100.00
43364;BME280;40636;52.424;-1.948;2023-01-01T10:26:55;98957.59;;;7.33;100.00
43364;BME280;40636;52.424;-1.948;2023-01-01T10:29:35;98960.63;;;7.36;100.00
43364;BME280;40636;52.424;-1.948;2023-01-01T10:32:17;98971.34;;;7.43;100.00
43364;BME280;40636;52.424;-1.948;2023-01-01T10:34:44;98951.78;;;7.51;100.00
43364;BME280;40636;52.424;-1.948;2023-01-01T10:37:11;98953.00;;;7.60;100.00
43364;BME280;40636;52.424;-1.948;2023-01-01T10:39:39;98947.03;;;7.63;100.00
43364;BME280;40636;52.424;-1.948;2023-01-01T10:42:11;98958.00;;;7.69;100.00
43364;BME280;40636;52.424;-1.948;2023-01-01T10:44:38;98963.53;;;7.74;100.00
43364;BME280;40636;52.424;-1.948;2023-01-01T10:52:36;98955.53;;;7.94;100.00
43364;BME280;40636;52.424;-1.948;2023-01-01T10:55:05;98965.19;;;8.02;100.00
43364;BME280;40636;52.424;-1.948;2023-01-01T10:57:36;98970.13;;;8.05;100.00
43364;BME280;40636;52.424;-1.948;2023-01-01T11:00:23;98946.88;;;8.02;100.00
43364;BME280;40636;52.424;-1.948;2023-01-01T11:03:19;98955.88;;;8.03;100.00
43364;BME280;40636;52.424;-1.948;2023-01-01T11:08:28;98962.25;;;8.08;100.00
43364;BME280;40636;52.424;-1.948;2023-01-01T11:10:59;98966.34;;;8.11;100.00
43364;BME280;40636;52.424;-1.948;2023-01-01T11:13:28;98955.16;;;8.12;100.00
43364;BME280;40636;52.424;-1.948;2023-01-01T11:15:56;98951.41;;;8.19;100.00
43364;BME280;40636;52.424;-1.948;2023-01-01T11:18:29;98952.53;;;8.23;100.00
43364;BME280;40636;52.424;-1.948;2023-01-01T11:21:04;98948.22;;;8.27;100.00
43364;BME280;40636;52.424;-1.948;2023-01-01T11:23:35;98951.22;;;8.30;100.00
43364;BME280;40636;52.424;-1.948;2023-01-01T11:28:40;98945.59;;;8.37;100.00
43364;BME280;40636;52.424;-1.948;2023-01-01T11:31:17;98958.47;;;8.42;100.00
43364;BME280;40636;52.424;-1.948;2023-01-01T11:33:50;98946.75;;;8.46;100.00
43364;BME280;40636;52.424;-1.948;2023-01-01T11:36:31;98953.06;;;8.52;100.00
43364;BME280;40636;52.424;-1.948;2023-01-01T11:39:19;98945.22;;;8.60;100.00
43364;BME280;40636;52.424;-1.948;2023-01-01T11:41:55;98946.84;;;8.61;100.00
43364;BME280;40636;52.424;-1.948;2023-01-01T11:44:29;98936.75;;;8.62;100.00
43364;BME280;40636;52.424;-1.948;2023-01-01T11:46:59;98943.34;;;8.66;100.00
43364;BME280;40636;52.424;-1.948;2023-01-01T11:49:27;98947.72;;;8.67;100.00
43364;BME280;40636;52.424;-1.948;2023-01-01T11:51:57;98951.28;;;8.68;100.00
43364;BME280;40636;52.424;-1.948;2023-01-01T11:54:33;98944.16;;;8.67;100.00
43364;BME280;40636;52.424;-1.948;2023-01-01T11:57:08;98946.66;;;8.68;100.00
43364;BME280;40636;52.424;-1.948;2023-01-01T11:59:48;98953.47;;;8.71;100.00
43364;BME280;40636;52.424;-1.948;2023-01-01T12:02:46;98965.53;;;8.70;100.00
43364;BME280;40636;52.424;-1.948;2023-01-01T12:07:42;98952.38;;;8.72;100.00
43364;BME280;40636;52.424;-1.948;2023-01-01T12:10:18;98959.53;;;8.73;100.00
43364;BME280;40636;52.424;-1.948;2023-01-01T12:13:06;98958.72;;;8.72;100.00
43364;BME280;40636;52.424;-1.948;2023-01-01T12:15:40;98953.78;;;8.74;100.00
43364;BME280;40636;52.424;-1.948;2023-01-01T12:18:28;98968.56;;;8.73;100.00
43364;BME280;40636;52.424;-1.948;2023-01-01T12:21:03;98962.31;;;8.78;100.00
43364;BME280;40636;52.424;-1.948;2023-01-01T12:23:31;98961.22;;;8.79;100.00
43364;BME280;40636;52.424;-1.948;2023-01-01T12:28:43;98963.94;;;8.79;100.00
43364;BME280;40636;52.424;-1.948;2023-01-01T12:37:12;98942.59;;;8.81;100.00
43364;BME280;40636;52.424;-1.948;2023-01-01T12:48:07;98925.66;;;8.84;100.00
43364;BME280;40636;52.424;-1.948;2023-01-01T12:53:38;98918.84;;;8.81;100.00
43364;BME280;40636;52.424;-1.948;2023-01-01T12:56:41;98927.03;;;8.81;100.00
43364;BME280;40636;52.424;-1.948;2023-01-01T12:59:15;98927.31;;;8.85;100.00
43364;BME280;40636;52.424;-1.948;2023-01-01T13:01:45;98928.97;;;8.86;100.00
43364;BME280;40636;52.424;-1.948;2023-01-01T13:04:17;98935.25;;;8.81;100.00
43364;BME280;40636;52.424;-1.948;2023-01-01T13:06:48;98932.78;;;8.85;100.00
43364;BME280;40636;52.424;-1.948;2023-01-01T13:09:22;98928.41;;;8.84;100.00
43364;BME280;40636;52.424;-1.948;2023-01-01T13:11:56;98932.25;;;8.88;100.00
43364;BME280;40636;52.424;-1.948;2023-01-01T13:14:25;98931.75;;;8.91;100.00
43364;BME280;40636;52.424;-1.948;2023-01-01T13:16:54;98939.66;;;8.87;100.00
43364;BME280;40636;52.424;-1.948;2023-01-01T13:19:41;98938.84;;;8.87;100.00
43364;BME280;40636;52.424;-1.948;2023-01-01T13:25:17;98938.28;;;8.90;100.00
43364;BME280;40636;52.424;-1.948;2023-01-01T13:33:29;98935.31;;;8.92;100.00
43364;BME280;40636;52.424;-1.948;2023-01-01T13:38:48;98939.41;;;8.94;100.00
43364;BME280;40636;52.424;-1.948;2023-01-01T13:43:50;98924.41;;;9.02;100.00
43364;BME280;40636;52.424;-1.948;2023-01-01T13:46:24;98935.66;;;9.05;100.00
43364;BME280;40636;52.424;-1.948;2023-01-01T13:58:07;98943.88;;;9.05;100.00
43364;BME280;40636;52.424;-1.948;2023-01-01T14:03:16;98951.56;;;9.08;100.00
43364;BME280;40636;52.424;-1.948;2023-01-01T14:05:48;98957.84;;;9.09;100.00
43364;BME280;40636;52.424;-1.948;2023-01-01T14:08:35;98967.97;;;9.08;100.00
43364;BME280;40636;52.424;-1.948;2023-01-01T14:11:18;98950.97;;;9.06;100.00
43364;BME280;40636;52.424;-1.948;2023-01-01T14:13:45;98958.66;;;9.04;100.00
43364;BME280;40636;52.424;-1.948;2023-01-01T14:16:11;98963.84;;;9.06;100.00
43364;BME280;40636;52.424;-1.948;2023-01-01T14:18:50;98958.59;;;8.99;100.00
43364;BME280;40636;52.424;-1.948;2023-01-01T14:21:22;98962.97;;;8.95;100.00
43364;BME280;40636;52.424;-1.948;2023-01-01T14:23:56;98966.50;;;8.91;100.00
43364;BME280;40636;52.424;-1.948;2023-01-01T14:26:26;98961.56;;;8.93;100.00
43364;BME280;40636;52.424;-1.948;2023-01-01T14:28:54;98956.91;;;8.93;100.00
43364;BME280;40636;52.424;-1.948;2023-01-01T14:31:28;98968.13;;;8.92;100.00
43364;BME280;40636;52.424;-1.948;2023-01-01T14:33:56;98972.81;;;8.96;100.00
43364;BME280;40636;52.424;-1.948;2023-01-01T14:36:26;98985.41;;;8.97;100.00
43364;BME280;40636;52.424;-1.948;2023-01-01T14:38:56;98980.47;;;8.99;100.00
43364;BME280;40636;52.424;-1.948;2023-01-01T14:41:36;98981.31;;;9.00;100.00
43364;BME280;40636;52.424;-1.948;2023-01-01T14:44:08;98986.25;;;9.03;100.00
43364;BME280;40636;52.424;-1.948;2023-01-01T14:46:39;98988.75;;;9.04;100.00
43364;BME280;40636;52.424;-1.948;2023-01-01T14:49:08;98983.50;;;9.03;100.00
43364;BME280;40636;52.424;-1.948;2023-01-01T14:51:36;98980.53;;;9.04;100.00